createdAt,value
2019-02-09T00:01:04.989Z,99633.45
2019-02-09T00:03:36.857Z,99634.08
2019-02-09T00:06:09.003Z,99625.80
2019-02-09T00:08:40.786Z,99613.45
2019-02-09T00:11:12.372Z,99620.58
2019-02-09T00:13:44.315Z,99612.30
2019-02-09T00:16:16.058Z,99615.33
2019-02-09T00:18:47.753Z,99612.75
2019-02-09T00:21:18.462Z,99614.31
2019-02-09T00:23:50.309Z,99612.44
2019-02-09T00:26:21.867Z,99607.53
2019-02-09T00:28:53.431Z,99604.81
2019-02-09T00:31:25.310Z,99603.95
2019-02-09T00:33:56.856Z,99593.48
2019-02-09T00:36:28.761Z,99587.50
2019-02-09T00:38:59.633Z,99586.00
2019-02-09T00:41:31.370Z,99578.00
2019-02-09T00:44:03.313Z,99578.00
2019-02-09T00:46:35.306Z,99573.86
2019-02-09T00:49:07.048Z,99564.95
2019-02-09T00:51:38.800Z,99566.76
2019-02-09T00:54:10.414Z,99562.55
2019-02-09T00:56:42.299Z,99558.83
2019-02-09T00:59:13.858Z,99549.82
2019-02-09T01:01:45.448Z,99556.88
2019-02-09T01:04:17.302Z,99554.50
2019-02-09T01:06:48.969Z,99545.19
2019-02-09T01:09:20.774Z,99544.41
2019-02-09T01:11:52.580Z,99535.70
2019-02-09T01:14:24.373Z,99541.69
2019-02-09T01:16:56.254Z,99541.69
2019-02-09T01:19:27.891Z,99528.91
2019-02-09T01:21:59.757Z,99529.70
2019-02-09T01:24:30.502Z,99531.76
2019-02-09T01:27:02.268Z,99528.20
2019-02-09T01:29:34.310Z,99520.91
2019-02-09T01:32:06.310Z,99517.53
2019-02-09T01:34:38.422Z,99515.42
2019-02-09T01:37:10.319Z,99512.49
2019-02-09T01:39:41.913Z,99500.67
2019-02-09T01:44:59.816Z,99491.56
2019-02-09T01:47:31.654Z,99488.20
2019-02-09T01:50:03.365Z,99482.72
2019-02-09T01:52:35.301Z,99478.30
2019-02-09T01:55:07.806Z,99475.94
2019-02-09T01:57:39.401Z,99469.52
2019-02-09T02:00:19.752Z,99467.06
2019-02-09T02:02:50.493Z,99463.33
2019-02-09T02:05:23.793Z,99456.34
2019-02-09T02:07:54.532Z,99461.77
2019-02-09T02:10:36.751Z,99455.11
2019-02-09T02:13:09.504Z,99454.62
2019-02-09T02:15:42.320Z,99448.72
2019-02-09T02:18:14.795Z,99442.64
2019-02-09T02:20:46.826Z,99434.00
2019-02-09T02:23:18.807Z,99428.18
2019-02-09T02:25:50.818Z,99415.19
2019-02-09T02:28:22.860Z,99410.28
2019-02-09T02:30:54.810Z,99410.72
2019-02-09T02:33:26.841Z,99407.57
2019-02-09T02:35:58.792Z,99392.83
2019-02-09T02:38:29.670Z,99386.25
2019-02-09T02:41:01.798Z,99368.00
2019-02-09T02:43:33.260Z,99368.00
2019-02-09T02:46:05.361Z,99372.29
2019-02-09T02:48:37.507Z,99372.69
2019-02-09T02:51:09.765Z,99357.95
2019-02-09T02:53:40.667Z,99358.91
2019-02-09T02:56:12.840Z,99339.04
2019-02-09T02:58:44.782Z,99339.04
2019-02-09T03:01:17.318Z,99341.97
2019-02-09T03:03:49.355Z,99337.59
2019-02-09T03:06:21.524Z,99335.71
2019-02-09T03:08:53.806Z,99325.76
2019-02-09T03:11:25.863Z,99314.63
2019-02-09T03:13:57.787Z,99309.53
2019-02-09T03:16:28.689Z,99298.19
2019-02-09T03:19:00.263Z,99298.52
2019-02-09T03:21:32.315Z,99297.63
2019-02-09T03:24:04.304Z,99296.27
2019-02-09T03:26:36.339Z,99297.94
2019-02-09T03:29:08.347Z,99277.28
2019-02-09T03:31:40.530Z,99286.47
2019-02-09T03:34:12.856Z,99265.22
2019-02-09T03:36:44.798Z,99265.22
2019-02-09T03:39:16.819Z,99287.83
2019-02-09T03:41:48.881Z,99287.83
2019-02-09T03:44:20.836Z,99292.14
2019-02-09T03:46:52.765Z,99278.91
2019-02-09T03:49:25.315Z,99275.67
2019-02-09T03:51:57.803Z,99272.95
2019-02-09T03:54:28.685Z,99271.02
2019-02-09T03:57:00.839Z,99267.13
2019-02-09T04:02:17.329Z,99265.12
2019-02-09T04:04:49.371Z,99269.78
2019-02-09T04:07:21.487Z,99268.09
2019-02-09T04:09:53.711Z,99262.88
2019-02-09T04:12:25.102Z,99255.02
2019-02-09T04:14:57.330Z,99263.41
2019-02-09T04:17:29.325Z,99271.17
2019-02-09T04:20:01.350Z,99272.31
2019-02-09T04:22:33.547Z,99271.61
2019-02-09T04:25:05.877Z,99269.60
2019-02-09T04:27:38.317Z,99272.25
2019-02-09T04:30:26.821Z,99269.53
2019-02-09T04:32:59.024Z,99266.89
2019-02-09T04:35:30.886Z,99269.41
2019-02-09T04:38:03.339Z,99268.34
2019-02-09T04:40:36.091Z,99258.31
2019-02-09T04:43:08.319Z,99266.98
2019-02-09T04:45:40.324Z,99258.84
2019-02-09T04:48:12.332Z,99256.00
2019-02-09T04:50:44.517Z,99254.95
2019-02-09T04:53:16.763Z,99260.91
2019-02-09T04:55:48.840Z,99251.72
2019-02-09T04:58:20.802Z,99265.41
2019-02-09T05:00:51.705Z,99272.06
2019-02-09T05:03:22.633Z,99262.33
2019-02-09T05:05:54.798Z,99256.38
2019-02-09T05:08:27.081Z,99256.38
2019-02-09T05:10:59.531Z,99257.80
2019-02-09T05:13:31.711Z,99257.14
2019-02-09T05:16:03.821Z,99246.05
2019-02-09T05:18:35.767Z,99246.05
2019-02-09T05:21:07.822Z,99265.81
2019-02-09T05:23:39.872Z,99276.02
2019-02-09T05:26:11.836Z,99265.04
2019-02-09T05:28:43.810Z,99271.30
2019-02-09T05:31:22.976Z,99267.29
2019-02-09T05:33:49.253Z,99269.30
2019-02-09T05:36:20.644Z,99259.80
2019-02-09T05:38:52.805Z,99258.34
2019-02-09T05:41:24.827Z,99258.34
2019-02-09T05:43:56.824Z,99250.78
2019-02-09T05:46:28.817Z,99254.52
2019-02-09T05:49:00.810Z,99247.17
2019-02-09T05:51:33.016Z,99243.05
2019-02-09T05:54:04.841Z,99248.72
2019-02-09T05:56:36.867Z,99266.48
2019-02-09T05:59:08.810Z,99257.70
2019-02-09T06:01:40.847Z,99261.35
2019-02-09T06:04:12.773Z,99240.13
2019-02-09T06:06:43.673Z,99226.41
2019-02-09T06:09:14.661Z,99230.85
2019-02-09T06:11:47.315Z,99237.41
2019-02-09T06:14:19.331Z,99237.41
2019-02-09T06:16:51.800Z,99250.05
2019-02-09T06:19:24.307Z,99268.67
2019-02-09T06:21:56.771Z,99276.95
2019-02-09T06:24:27.692Z,99284.84
2019-02-09T06:27:01.333Z,99285.02
2019-02-09T06:29:33.285Z,99273.09
2019-02-09T06:32:05.323Z,99268.47
2019-02-09T06:34:37.315Z,99261.98
2019-02-09T06:37:09.320Z,99267.77
2019-02-09T06:39:43.794Z,99260.14
2019-02-09T06:42:16.309Z,99262.98
2019-02-09T06:44:48.357Z,99252.52
2019-02-09T06:47:20.443Z,99249.59
2019-02-09T06:49:52.343Z,99269.55
2019-02-09T06:52:24.475Z,99269.89
2019-02-09T06:54:57.055Z,99275.69
2019-02-09T06:57:29.029Z,99285.56
2019-02-09T07:00:01.310Z,99289.45
2019-02-09T07:02:33.393Z,99286.72
2019-02-09T07:05:05.539Z,99279.71
2019-02-09T07:07:37.859Z,99275.23
2019-02-09T07:10:10.426Z,99279.19
2019-02-09T07:12:42.796Z,99274.14
2019-02-09T07:15:19.003Z,99279.91
2019-02-09T07:17:51.472Z,99286.32
2019-02-09T07:20:23.305Z,99304.55
2019-02-09T07:22:55.270Z,99313.34
2019-02-09T07:25:27.916Z,99323.62
2019-02-09T07:28:00.306Z,99323.28
2019-02-09T07:30:32.332Z,99327.37
2019-02-09T07:34:34.826Z,99332.19
2019-02-09T07:37:06.878Z,99345.79
2019-02-09T07:39:39.313Z,99342.23
2019-02-09T07:42:11.315Z,99351.97
2019-02-09T07:44:43.315Z,99355.33
2019-02-09T07:47:15.278Z,99354.90
2019-02-09T07:49:47.266Z,99344.45
2019-02-09T07:52:20.311Z,99349.05
2019-02-09T07:54:52.307Z,99343.56
2019-02-09T07:57:24.313Z,99337.09
2019-02-09T07:59:56.863Z,99329.59
2019-02-09T08:02:28.794Z,99327.01
2019-02-09T08:05:01.328Z,99333.25
2019-02-09T08:07:33.356Z,99327.60
2019-02-09T08:10:06.314Z,99338.89
2019-02-09T08:12:38.350Z,99343.95
2019-02-09T08:15:21.908Z,99359.78
2019-02-09T08:17:53.908Z,99353.83
2019-02-09T08:20:28.065Z,99366.86
2019-02-09T08:23:01.969Z,99362.77
2019-02-09T08:25:36.294Z,99363.30
2019-02-09T08:28:10.314Z,99366.45
2019-02-09T08:30:47.000Z,99361.63
2019-02-09T08:33:18.854Z,99364.97
2019-02-09T08:35:50.818Z,99373.43
2019-02-09T08:38:24.007Z,99379.73
2019-02-09T08:40:55.800Z,99381.39
2019-02-09T08:43:28.071Z,99392.83
2019-02-09T08:46:00.059Z,99377.30
2019-02-09T08:48:32.067Z,99381.38
2019-02-09T08:51:13.483Z,99384.29
2019-02-09T08:53:47.062Z,99376.18
2019-02-09T08:56:19.306Z,99382.08
2019-02-09T08:58:51.306Z,99376.95
2019-02-09T09:01:23.305Z,99378.27
2019-02-09T09:03:55.775Z,99378.50
2019-02-09T09:06:26.670Z,99372.03
2019-02-09T09:08:58.109Z,99382.08
2019-02-09T09:11:30.307Z,99381.67
2019-02-09T09:14:04.804Z,99383.75
2019-02-09T09:16:36.842Z,99387.71
2019-02-09T09:19:08.837Z,99398.89
2019-02-09T09:21:40.794Z,99395.63
2019-02-09T09:24:13.321Z,99414.36
2019-02-09T09:26:45.766Z,99413.08
2019-02-09T09:29:18.719Z,99410.88
2019-02-09T09:31:49.757Z,99417.56
2019-02-09T09:34:20.754Z,99413.08
2019-02-09T09:36:51.654Z,99420.70
2019-02-09T09:39:22.629Z,99411.17
2019-02-09T09:41:54.871Z,99403.34
2019-02-09T09:44:26.814Z,99403.34
2019-02-09T09:46:58.804Z,99422.59
2019-02-09T09:49:32.303Z,99423.24
2019-02-09T09:52:04.694Z,99421.89
2019-02-09T09:54:35.683Z,99410.35
2019-02-09T09:57:06.674Z,99410.35
2019-02-09T09:59:37.611Z,99433.47
2019-02-09T10:02:09.250Z,99434.22
2019-02-09T10:04:40.638Z,99434.52
2019-02-09T10:07:12.786Z,99447.30
2019-02-09T10:09:43.629Z,99447.30
2019-02-09T10:12:15.850Z,99447.18
2019-02-09T10:14:47.794Z,99447.18
2019-02-09T10:17:19.823Z,99452.55
2019-02-09T10:19:51.822Z,99459.77
2019-02-09T10:22:23.826Z,99464.19
2019-02-09T10:24:56.299Z,99475.44
2019-02-09T10:27:28.848Z,99471.05
2019-02-09T10:30:00.636Z,99479.52
2019-02-09T10:32:32.881Z,99459.23
2019-02-09T10:35:04.839Z,99459.23
2019-02-09T10:37:36.741Z,99488.67
2019-02-09T10:40:13.713Z,99500.79
2019-02-09T10:42:46.022Z,99500.72
2019-02-09T10:45:22.304Z,99504.28
2019-02-09T10:47:54.301Z,99503.10
2019-02-09T10:50:36.310Z,99497.42
2019-02-09T10:53:08.515Z,99502.62
2019-02-09T10:55:40.846Z,99492.80
2019-02-09T10:58:12.862Z,99490.63
2019-02-09T11:00:59.877Z,99493.99
2019-02-09T11:03:31.847Z,99499.19
2019-02-09T11:06:03.804Z,99503.24
2019-02-09T11:08:35.810Z,99499.69
2019-02-09T11:11:07.804Z,99497.92
2019-02-09T11:13:39.970Z,99498.05
2019-02-09T11:16:12.308Z,99514.55
2019-02-09T11:18:44.303Z,99515.20
2019-02-09T11:21:16.784Z,99517.62
2019-02-09T11:23:48.836Z,99517.34
2019-02-09T11:26:20.808Z,99509.31
2019-02-09T11:28:52.758Z,99509.06
2019-02-09T11:31:24.806Z,99505.92
2019-02-09T11:33:56.788Z,99494.95
2019-02-09T11:36:28.814Z,99513.61
2019-02-09T11:39:00.830Z,99506.18
2019-02-09T11:41:32.823Z,99523.38
2019-02-09T11:44:04.910Z,99516.16
2019-02-09T11:46:37.399Z,99514.80
2019-02-09T11:49:09.508Z,99516.28
2019-02-09T11:51:41.756Z,99525.67
2019-02-09T11:54:13.791Z,99516.23
2019-02-09T11:56:45.795Z,99529.94
2019-02-09T11:59:17.799Z,99513.34
2019-02-09T12:01:49.783Z,99521.42
2019-02-09T12:04:21.103Z,99520.37
2019-02-09T12:06:53.313Z,99511.98
2019-02-09T12:09:25.783Z,99511.14
2019-02-09T12:11:57.806Z,99501.31
2019-02-09T12:14:29.775Z,99509.59
2019-02-09T12:17:00.697Z,99522.67
2019-02-09T12:20:46.630Z,99505.69
2019-02-09T12:23:18.867Z,99501.33
2019-02-09T12:29:22.808Z,99517.25
2019-02-09T12:31:55.027Z,99513.96
2019-02-09T12:34:27.783Z,99517.39
2019-02-09T12:37:00.683Z,99511.65
2019-02-09T12:39:33.339Z,99512.89
2019-02-09T12:42:06.672Z,99523.44
2019-02-09T12:44:38.541Z,99511.91
2019-02-09T12:47:11.028Z,99500.55
2019-02-09T12:49:44.001Z,99500.55
2019-02-09T12:52:16.875Z,99518.16
2019-02-09T12:54:50.000Z,99512.50
2019-02-09T12:57:25.026Z,99509.26
2019-02-09T12:59:58.012Z,99515.34
2019-02-09T13:02:31.063Z,99516.06
2019-02-09T13:05:04.453Z,99524.88
2019-02-09T13:07:37.401Z,99533.69
2019-02-09T13:10:10.770Z,99530.83
2019-02-09T13:12:43.321Z,99538.30
2019-02-09T13:15:23.788Z,99516.27
2019-02-09T13:17:56.911Z,99533.07
2019-02-09T13:20:30.595Z,99534.64
2019-02-09T13:23:03.294Z,99537.73
2019-02-09T13:25:35.920Z,99537.73
2019-02-09T13:28:08.904Z,99538.95
2019-02-09T13:30:41.934Z,99531.30
2019-02-09T13:33:14.815Z,99535.10
2019-02-09T13:35:47.324Z,99525.02
2019-02-09T13:38:21.021Z,99530.67
2019-02-09T13:40:53.708Z,99553.30
2019-02-09T13:43:25.140Z,99543.58
2019-02-09T13:45:58.449Z,99532.04
2019-02-09T13:48:31.080Z,99542.91
2019-02-09T13:51:04.024Z,99537.88
2019-02-09T13:53:36.861Z,99544.28
2019-02-09T13:56:09.342Z,99557.28
2019-02-09T13:58:42.103Z,99554.13
2019-02-09T14:01:15.348Z,99556.16
2019-02-09T14:03:48.018Z,99550.11
2019-02-09T14:06:20.924Z,99557.89
2019-02-09T14:08:53.981Z,99554.70
2019-02-09T14:11:26.916Z,99550.44
2019-02-09T14:13:59.297Z,99552.52
2019-02-09T14:16:38.655Z,99557.09
2019-02-09T14:19:06.424Z,99558.21
2019-02-09T14:21:39.348Z,99561.36
2019-02-09T14:24:11.781Z,99564.39
2019-02-09T14:26:43.835Z,99580.34
2019-02-09T14:29:15.826Z,99578.55
2019-02-09T14:31:48.291Z,99574.14
2019-02-09T14:34:20.773Z,99578.97
2019-02-09T14:36:52.883Z,99555.61
2019-02-09T14:39:25.324Z,99561.14
2019-02-09T14:41:57.525Z,99564.37
2019-02-09T14:44:29.847Z,99561.86
2019-02-09T14:47:02.334Z,99563.02
2019-02-09T14:49:34.864Z,99565.29
2019-02-09T14:52:07.357Z,99566.02
2019-02-09T14:54:39.914Z,99574.60
2019-02-09T14:57:11.883Z,99569.07
2019-02-09T14:59:44.334Z,99576.63
2019-02-09T15:02:16.847Z,99577.88
2019-02-09T15:04:48.841Z,99578.49
2019-02-09T15:07:20.861Z,99579.41
2019-02-09T15:09:53.333Z,99578.62
2019-02-09T15:12:26.398Z,99585.19
2019-02-09T15:14:58.611Z,99579.38
2019-02-09T15:17:30.880Z,99559.87
2019-02-09T15:20:03.329Z,99559.87
2019-02-09T15:22:35.413Z,99576.45
2019-02-09T15:25:08.324Z,99571.33
2019-02-09T15:27:40.535Z,99571.63
2019-02-09T15:30:17.523Z,99576.36
2019-02-09T15:32:49.830Z,99567.13
2019-02-09T15:35:22.827Z,99572.27
2019-02-09T15:37:54.845Z,99574.69
2019-02-09T15:40:26.891Z,99579.51
2019-02-09T15:42:58.849Z,99581.69
2019-02-09T15:45:30.827Z,99567.95
2019-02-09T15:48:02.868Z,99573.41
2019-02-09T15:50:34.865Z,99571.53
2019-02-09T15:53:06.900Z,99575.59
2019-02-09T15:55:39.002Z,99576.73
2019-02-09T15:58:11.610Z,99570.76
2019-02-09T16:00:44.330Z,99573.80
2019-02-09T16:03:16.924Z,99573.80
2019-02-09T16:05:49.009Z,99578.94
2019-02-09T16:08:20.923Z,99584.28
2019-02-09T16:10:52.780Z,99593.22
2019-02-09T16:13:24.831Z,99601.53
2019-02-09T16:15:56.781Z,99602.59
2019-02-09T16:18:28.852Z,99595.97
2019-02-09T16:21:01.345Z,99596.34
2019-02-09T16:23:33.905Z,99606.69
2019-02-09T16:26:05.929Z,99605.09
2019-02-09T16:28:38.332Z,99600.18
2019-02-09T16:31:10.877Z,99597.64
2019-02-09T16:33:43.440Z,99601.12
2019-02-09T16:36:15.858Z,99606.45
2019-02-09T16:38:47.932Z,99604.64
2019-02-09T16:41:32.863Z,99600.01
2019-02-09T16:44:05.555Z,99606.85
2019-02-09T16:46:37.893Z,99611.66
2019-02-09T16:49:10.332Z,99618.22
2019-02-09T16:51:42.858Z,99626.27
2019-02-09T16:54:14.856Z,99632.78
2019-02-09T16:56:46.864Z,99627.52
2019-02-09T16:59:18.836Z,99628.67
2019-02-09T17:01:50.847Z,99632.33
2019-02-09T17:04:22.834Z,99632.75
2019-02-09T17:06:54.847Z,99633.36
2019-02-09T17:09:28.337Z,99637.04
2019-02-09T17:12:00.352Z,99644.91
2019-02-09T17:14:32.803Z,99654.23
2019-02-09T17:17:04.835Z,99654.31
2019-02-09T17:19:36.892Z,99657.53
2019-02-09T17:22:08.851Z,99657.75
2019-02-09T17:24:41.336Z,99663.81
2019-02-09T17:27:13.855Z,99657.19
2019-02-09T17:29:46.565Z,99655.41
2019-02-09T17:32:18.865Z,99652.88
2019-02-09T17:34:50.823Z,99652.88
2019-02-09T17:37:22.959Z,99669.94
2019-02-09T17:39:55.702Z,99669.89
2019-02-09T17:42:26.714Z,99673.86
2019-02-09T17:44:59.071Z,99681.68
2019-02-09T17:47:30.824Z,99678.60
2019-02-09T17:50:02.875Z,99674.93
2019-02-09T17:52:35.161Z,99677.91
2019-02-09T17:55:09.540Z,99684.64
2019-02-09T17:57:41.813Z,99688.36
2019-02-09T18:00:23.561Z,99688.36
2019-02-09T18:02:55.798Z,99690.06
2019-02-09T18:05:27.788Z,99695.87
2019-02-09T18:07:59.872Z,99699.59
2019-02-09T18:10:31.870Z,99701.09
2019-02-09T18:13:04.084Z,99704.75
2019-02-09T18:15:36.868Z,99701.75
2019-02-09T18:18:10.327Z,99695.87
2019-02-09T18:20:42.889Z,99701.07
2019-02-09T18:23:15.324Z,99699.40
2019-02-09T18:25:47.871Z,99692.06
2019-02-09T18:28:19.859Z,99693.80
2019-02-09T18:30:52.876Z,99690.52
2019-02-09T18:33:25.333Z,99681.08
2019-02-09T18:35:58.011Z,99682.63
2019-02-09T18:39:56.865Z,99669.91
2019-02-09T18:42:28.890Z,99669.91
2019-02-09T18:45:03.627Z,99680.41
2019-02-09T18:47:34.662Z,99685.41
2019-02-09T18:50:07.832Z,99682.88
2019-02-09T18:52:39.922Z,99682.88
2019-02-09T18:55:16.820Z,99684.52
2019-02-09T18:57:49.384Z,99687.91
2019-02-09T19:00:25.885Z,99694.22
2019-02-09T19:02:58.008Z,99693.89
2019-02-09T19:05:30.324Z,99690.44
2019-02-09T19:08:02.833Z,99682.39
2019-02-09T19:10:34.962Z,99682.59
2019-02-09T19:13:07.339Z,99682.27
2019-02-09T19:15:39.669Z,99685.38
2019-02-09T19:18:11.833Z,99687.73
2019-02-09T19:20:52.858Z,99687.73
2019-02-09T19:23:25.358Z,99693.30
2019-02-09T19:25:57.656Z,99703.05
2019-02-09T19:28:29.818Z,99703.24
2019-02-09T19:31:01.999Z,99710.13
2019-02-09T19:33:34.328Z,99707.41
2019-02-09T19:36:06.845Z,99710.31
2019-02-09T19:38:39.311Z,99707.05
2019-02-09T19:41:11.423Z,99702.55
2019-02-09T19:43:44.328Z,99706.70
2019-02-09T19:46:16.511Z,99709.16
2019-02-09T19:48:48.793Z,99717.03
2019-02-09T19:51:20.910Z,99723.91
2019-02-09T19:53:53.323Z,99736.92
2019-02-09T19:56:25.652Z,99740.64
2019-02-09T19:58:57.828Z,99719.75
2019-02-09T20:01:29.868Z,99719.75
2019-02-09T20:04:02.097Z,99746.50
2019-02-09T20:06:34.844Z,99753.36
2019-02-09T20:09:10.298Z,99750.69
2019-02-09T20:11:42.848Z,99760.94
2019-02-09T20:14:14.873Z,99768.11
2019-02-09T20:16:46.894Z,99769.38
2019-02-09T20:19:18.871Z,99775.70
2019-02-09T20:21:51.496Z,99781.98
2019-02-09T20:24:23.793Z,99776.73
2019-02-09T20:26:55.873Z,99770.69
2019-02-09T20:29:28.392Z,99781.88
2019-02-09T20:32:00.877Z,99775.08
2019-02-09T20:34:32.814Z,99773.80
2019-02-09T20:37:04.831Z,99775.53
2019-02-09T20:39:36.844Z,99774.95
2019-02-09T20:42:08.836Z,99774.30
2019-02-09T20:44:40.857Z,99782.14
2019-02-09T20:47:13.302Z,99780.91
2019-02-09T20:49:46.331Z,99791.13
2019-02-09T20:52:18.843Z,99781.66
2019-02-09T20:54:50.865Z,99794.16
2019-02-09T20:57:22.857Z,99798.44
2019-02-09T20:59:54.879Z,99802.11
2019-02-09T21:02:27.027Z,99796.85
2019-02-09T21:05:00.706Z,99796.02
2019-02-09T21:07:33.002Z,99797.17
2019-02-09T21:10:04.806Z,99797.94
2019-02-09T21:12:36.858Z,99794.91
2019-02-09T21:15:10.358Z,99794.95
2019-02-09T21:17:42.728Z,99790.42
2019-02-09T21:20:15.311Z,99793.28
2019-02-09T21:22:47.725Z,99786.98
2019-02-09T21:25:40.671Z,99793.98
2019-02-09T21:28:12.894Z,99779.53
2019-02-09T21:30:44.843Z,99779.53
2019-02-09T21:33:16.872Z,99801.55
2019-02-09T21:35:48.869Z,99803.87
2019-02-09T21:38:20.854Z,99802.94
2019-02-09T21:40:52.841Z,99811.92
2019-02-09T21:43:24.883Z,99809.87
2019-02-09T21:45:56.803Z,99803.60
2019-02-09T21:48:28.844Z,99799.84
2019-02-09T21:51:00.977Z,99803.73
2019-02-09T21:53:33.312Z,99804.96
2019-02-09T21:56:05.828Z,99802.63
2019-02-09T21:58:37.826Z,99807.85
2019-02-09T22:01:09.847Z,99811.09
2019-02-09T22:03:42.085Z,99808.23
2019-02-09T22:06:14.328Z,99798.86
2019-02-09T22:08:46.827Z,99808.76
2019-02-09T22:11:18.870Z,99804.34
2019-02-09T22:13:50.922Z,99804.86
2019-02-09T22:16:22.881Z,99805.42
2019-02-09T22:18:54.958Z,99806.08
2019-02-09T22:21:27.893Z,99800.85
2019-02-09T22:24:00.377Z,99806.78
2019-02-09T22:26:32.802Z,99808.23
2019-02-09T22:29:04.881Z,99808.66
2019-02-09T22:31:36.982Z,99812.77
2019-02-09T22:34:09.940Z,99804.16
2019-02-09T22:36:41.892Z,99807.67
2019-02-09T22:39:13.916Z,99815.30
2019-02-09T22:41:49.133Z,99811.92
2019-02-09T22:44:21.823Z,99810.53
2019-02-09T22:46:53.857Z,99796.95
2019-02-09T22:49:25.828Z,99801.06
2019-02-09T22:51:57.868Z,99794.27
2019-02-09T22:54:30.326Z,99796.11
2019-02-09T22:57:02.851Z,99800.67
2019-02-09T22:59:34.838Z,99799.66
2019-02-09T23:02:07.335Z,99803.47
2019-02-09T23:05:39.454Z,99801.63
2019-02-09T23:08:11.799Z,99810.53
2019-02-09T23:10:43.887Z,99817.08
2019-02-09T23:13:16.359Z,99813.56
2019-02-09T23:15:49.292Z,99812.94
2019-02-09T23:18:21.855Z,99817.50
2019-02-09T23:20:53.878Z,99811.93
2019-02-09T23:23:25.848Z,99812.28
2019-02-09T23:25:57.896Z,99817.40
2019-02-09T23:28:30.322Z,99815.20
2019-02-09T23:31:03.018Z,99813.01
2019-02-09T23:33:35.865Z,99819.45
2019-02-09T23:36:15.159Z,99814.86
2019-02-09T23:38:43.331Z,99810.43
2019-02-09T23:41:15.528Z,99810.43
2019-02-09T23:43:47.944Z,99815.38
2019-02-09T23:46:19.877Z,99813.32
2019-02-09T23:48:52.021Z,99815.52
2019-02-09T23:52:07.328Z,99811.09
2019-02-09T23:54:39.848Z,99819.24
2019-02-09T23:57:11.848Z,99816.35
2019-02-09T23:59:43.828Z,99815.17
